createdAt,value
2022-09-03T00:00:52.507Z,95981.00
2022-09-03T00:03:22.897Z,95989.94
2022-09-03T00:06:01.671Z,95981.34
2022-09-03T00:08:40.755Z,95985.38
2022-09-03T00:11:22.154Z,95986.66
2022-09-03T00:13:52.475Z,95987.38
2022-09-03T00:16:23.502Z,95978.69
2022-09-03T00:18:56.578Z,95983.13
2022-09-03T00:21:41.510Z,95978.19
2022-09-03T00:24:14.215Z,95978.53
2022-09-03T00:26:47.303Z,95971.72
2022-09-03T00:29:23.549Z,95977.38
2022-09-03T00:32:05.218Z,95980.25
2022-09-03T00:34:35.954Z,95975.28
2022-09-03T00:37:03.829Z,95976.88
2022-09-03T00:39:30.568Z,95970.00
2022-09-03T00:42:12.538Z,95975.94
2022-09-03T00:45:06.828Z,95974.97
2022-09-03T00:47:57.572Z,95973.97
2022-09-03T00:50:50.223Z,95965.41
2022-09-03T00:53:52.205Z,95971.16
2022-09-03T00:56:21.855Z,95980.81
2022-09-03T00:59:03.519Z,95985.69
2022-09-03T01:01:55.665Z,95980.34
2022-09-03T01:04:28.165Z,95985.56
2022-09-03T01:07:06.694Z,95979.25
2022-09-03T01:09:58.190Z,95983.47
2022-09-03T01:12:35.197Z,95992.53
2022-09-03T01:15:22.602Z,95992.34
2022-09-03T01:18:07.272Z,95997.16
2022-09-03T01:20:51.123Z,95993.41
2022-09-03T01:23:28.802Z,95987.72
2022-09-03T01:26:16.239Z,95987.22
2022-09-03T01:29:12.403Z,95994.66
2022-09-03T01:32:23.898Z,95994.66
2022-09-03T01:34:56.523Z,96002.47
2022-09-03T01:37:54.742Z,96000.97
2022-09-03T01:40:30.243Z,96007.22
2022-09-03T01:43:20.246Z,96019.13
2022-09-03T01:46:01.667Z,96010.88
2022-09-03T01:48:56.360Z,96009.78
2022-09-03T01:51:29.902Z,96002.34
2022-09-03T01:54:21.095Z,96002.19
2022-09-03T01:57:36.924Z,95995.94
2022-09-03T02:00:16.507Z,96002.28
2022-09-03T02:02:48.214Z,95998.81
2022-09-03T02:05:18.191Z,95994.34
2022-09-03T02:07:53.110Z,96004.22
2022-09-03T02:10:34.333Z,96003.72
2022-09-03T02:13:07.380Z,96004.69
2022-09-03T02:15:37.431Z,96011.03
2022-09-03T02:18:11.173Z,96004.69
2022-09-03T02:20:38.694Z,95999.91
2022-09-03T02:23:05.594Z,96003.75
2022-09-03T02:25:40.134Z,96002.94
2022-09-03T02:28:27.405Z,95989.13
2022-09-03T02:30:54.627Z,95998.31
2022-09-03T02:33:21.421Z,95993.56
2022-09-03T02:35:49.026Z,95993.53
2022-09-03T02:38:18.744Z,95986.06
2022-09-03T02:40:46.006Z,95984.94
2022-09-03T02:43:37.555Z,95987.16
2022-09-03T02:46:08.410Z,95991.66
2022-09-03T02:48:35.726Z,95997.19
2022-09-03T02:51:02.366Z,95984.78
2022-09-03T02:53:40.818Z,95996.41
2022-09-03T02:56:07.536Z,95991.78
2022-09-03T02:58:34.374Z,95998.47
2022-09-03T03:01:01.703Z,95999.28
2022-09-03T03:03:28.626Z,96003.72
2022-09-03T03:05:58.464Z,95998.31
2022-09-03T03:08:28.714Z,95994.22
2022-09-03T03:10:58.911Z,95993.13
2022-09-03T03:13:26.918Z,95992.78
2022-09-03T03:16:03.411Z,95995.78
2022-09-03T03:18:30.435Z,95999.31
2022-09-03T03:20:57.166Z,95997.69
2022-09-03T03:23:23.975Z,95998.78
2022-09-03T03:25:50.659Z,96004.50
2022-09-03T03:28:20.395Z,96000.75
2022-09-03T03:30:48.736Z,96000.06
2022-09-03T03:33:15.636Z,96006.25
2022-09-03T03:35:42.977Z,96017.66
2022-09-03T03:38:09.879Z,96018.75
2022-09-03T03:40:39.005Z,96014.81
2022-09-03T03:43:05.725Z,96014.63
2022-09-03T03:45:32.519Z,96018.25
2022-09-03T03:47:59.576Z,96012.41
2022-09-03T03:50:26.507Z,96015.75
2022-09-03T03:52:53.223Z,96009.25
2022-09-03T03:55:19.915Z,96013.72
2022-09-03T03:57:46.972Z,96014.22
2022-09-03T04:00:14.547Z,96015.00
2022-09-03T04:02:41.265Z,96011.22
2022-09-03T04:05:08.396Z,96010.09
2022-09-03T04:07:35.127Z,96009.31
2022-09-03T04:10:01.886Z,96023.88
2022-09-03T04:12:28.617Z,96022.94
2022-09-03T04:14:55.289Z,96018.31
2022-09-03T04:17:25.141Z,96013.28
2022-09-03T04:19:52.225Z,96009.47
2022-09-03T04:22:20.776Z,96014.66
2022-09-03T04:24:47.471Z,96008.03
2022-09-03T04:27:14.295Z,96004.69
2022-09-03T04:29:41.323Z,95998.81
2022-09-03T04:32:26.757Z,96001.84
2022-09-03T04:34:53.451Z,96011.53
2022-09-03T04:37:20.413Z,96010.59
2022-09-03T04:39:47.362Z,96005.03
2022-09-03T04:42:14.109Z,96009.47
2022-09-03T04:44:41.333Z,96003.72
2022-09-03T04:47:08.268Z,96010.84
2022-09-03T04:49:35.066Z,96006.56
2022-09-03T04:52:03.565Z,96003.72
2022-09-03T04:54:30.271Z,96004.72
2022-09-03T04:56:57.030Z,96007.72
2022-09-03T04:59:23.705Z,96008.34
2022-09-03T05:01:52.841Z,96011.53
2022-09-03T05:04:19.903Z,96008.66
2022-09-03T05:06:46.656Z,96005.19
2022-09-03T05:09:13.538Z,96001.06
2022-09-03T05:11:40.238Z,96002.13
2022-09-03T05:14:07.282Z,96003.56
2022-09-03T05:16:34.100Z,96005.66
2022-09-03T05:19:01.482Z,96005.97
2022-09-03T05:21:29.426Z,96009.44
2022-09-03T05:23:56.599Z,96009.25
2022-09-03T05:26:26.122Z,96018.28
2022-09-03T05:28:57.681Z,96015.72
2022-09-03T05:31:26.811Z,96017.63
2022-09-03T05:33:59.058Z,96008.84
2022-09-03T05:36:31.554Z,96008.50
2022-09-03T05:38:59.242Z,96017.06
2022-09-03T05:41:27.153Z,96018.78
2022-09-03T05:44:01.162Z,96012.09
2022-09-03T05:46:32.212Z,96015.56
2022-09-03T05:49:04.022Z,96023.69
2022-09-03T05:51:31.901Z,96030.34
2022-09-03T05:53:58.935Z,96021.84
2022-09-03T05:56:27.986Z,96030.13
2022-09-03T05:58:59.811Z,96022.25
2022-09-03T06:01:29.647Z,96018.81
2022-09-03T06:04:00.287Z,96027.56
2022-09-03T06:06:28.326Z,96026.63
2022-09-03T06:08:56.270Z,96040.47
2022-09-03T06:11:29.849Z,96024.09
2022-09-03T06:13:57.698Z,96022.19
2022-09-03T06:16:30.567Z,96034.47
2022-09-03T06:19:00.206Z,96036.31
2022-09-03T06:21:27.464Z,96037.63
2022-09-03T06:23:59.985Z,96042.06
2022-09-03T06:26:29.206Z,96036.81
2022-09-03T06:28:57.369Z,96031.78
2022-09-03T06:31:25.049Z,96028.75
2022-09-03T06:33:53.131Z,96035.09
2022-09-03T06:36:20.993Z,96033.25
2022-09-03T06:38:47.881Z,96024.75
2022-09-03T06:41:23.879Z,96026.94
2022-09-03T06:43:59.137Z,96014.03
2022-09-03T06:46:25.865Z,96012.50
2022-09-03T06:48:53.458Z,96016.03
2022-09-03T06:51:22.818Z,96023.78
2022-09-03T06:53:51.765Z,96021.09
2022-09-03T06:56:33.056Z,96022.63
2022-09-03T06:59:06.345Z,96018.25
2022-09-03T07:01:34.192Z,96012.00
2022-09-03T07:04:03.572Z,96009.09
2022-09-03T07:06:39.598Z,96003.00
2022-09-03T07:09:07.474Z,96016.47
2022-09-03T07:11:36.095Z,96008.50
2022-09-03T07:14:05.449Z,96010.00
2022-09-03T07:16:37.348Z,96011.19
2022-09-03T07:19:06.140Z,96007.97
2022-09-03T07:21:36.830Z,96010.94
2022-09-03T07:24:05.752Z,96016.72
2022-09-03T07:26:41.199Z,96011.53
2022-09-03T07:29:08.163Z,96003.41
2022-09-03T07:31:40.213Z,96003.41
2022-09-03T07:34:10.484Z,96000.50
2022-09-03T07:36:41.730Z,96003.97
2022-09-03T07:39:10.105Z,96009.69
2022-09-03T07:41:37.440Z,96001.81
2022-09-03T07:44:07.867Z,96000.72
2022-09-03T07:46:37.920Z,96009.22
2022-09-03T07:49:06.414Z,96011.91
2022-09-03T07:51:36.213Z,96012.53
2022-09-03T07:54:07.015Z,96019.25
2022-09-03T07:56:35.244Z,96013.50
2022-09-03T07:59:03.335Z,96011.03
2022-09-03T08:01:34.007Z,96012.94
2022-09-03T08:04:02.727Z,96012.25
2022-09-03T08:06:31.235Z,96007.94
2022-09-03T08:09:04.886Z,96019.59
2022-09-03T08:11:35.311Z,96016.34
2022-09-03T08:14:06.441Z,96024.88
2022-09-03T08:16:51.604Z,96024.78
2022-09-03T08:19:18.855Z,96030.41
2022-09-03T08:21:46.042Z,96026.44
2022-09-03T08:24:16.148Z,96026.63
2022-09-03T08:26:47.614Z,96030.50
2022-09-03T08:29:18.548Z,96029.25
2022-09-03T08:31:45.318Z,96024.72
2022-09-03T08:34:13.297Z,96031.31
2022-09-03T08:36:41.553Z,96031.00
2022-09-03T08:39:11.003Z,96021.41
2022-09-03T08:41:56.300Z,96023.22
2022-09-03T08:44:28.051Z,96017.34
2022-09-03T08:47:00.975Z,96018.19
2022-09-03T08:49:43.174Z,96015.59
2022-09-03T08:52:26.329Z,96007.97
2022-09-03T08:54:59.605Z,96012.22
2022-09-03T08:57:26.374Z,96008.94
2022-09-03T08:59:56.521Z,96011.66
2022-09-03T09:02:39.954Z,96012.00
2022-09-03T09:05:31.066Z,96014.69
2022-09-03T09:08:18.934Z,96006.03
2022-09-03T09:10:49.221Z,96012.97
2022-09-03T09:13:17.364Z,96021.03
2022-09-03T09:15:59.149Z,96012.00
2022-09-03T09:18:56.759Z,96015.69
2022-09-03T09:21:34.472Z,96019.97
2022-09-03T09:24:06.042Z,96025.03
2022-09-03T09:26:33.669Z,96030.94
2022-09-03T09:29:06.131Z,96025.75
2022-09-03T09:31:37.594Z,96031.47
2022-09-03T09:34:07.190Z,96032.25
2022-09-03T09:36:47.418Z,96036.97
2022-09-03T09:39:17.753Z,96028.75
2022-09-03T09:41:56.691Z,96034.69
2022-09-03T09:44:26.488Z,96036.06
2022-09-03T09:47:06.811Z,96028.19
2022-09-03T09:49:56.189Z,96025.69
2022-09-03T09:52:26.119Z,96015.03
2022-09-03T09:54:55.023Z,96019.84
2022-09-03T09:57:24.790Z,96019.88
2022-09-03T10:00:13.471Z,96018.38
2022-09-03T10:02:48.148Z,96014.38
2022-09-03T10:05:31.472Z,96018.69
2022-09-03T10:08:00.936Z,96007.41
2022-09-03T10:10:29.305Z,96015.63
2022-09-03T10:13:19.511Z,96012.47
2022-09-03T10:15:56.114Z,96012.84
2022-09-03T10:18:29.283Z,96008.91
2022-09-03T10:21:07.734Z,96015.06
2022-09-03T10:24:00.149Z,96018.34
2022-09-03T10:26:33.149Z,96018.25
2022-09-03T10:29:02.648Z,96023.44
2022-09-03T10:31:44.217Z,96024.59
2022-09-03T10:34:22.517Z,96021.88
2022-09-03T10:37:15.882Z,96017.44
2022-09-03T10:40:20.967Z,96019.09
2022-09-03T10:42:52.107Z,96015.22
2022-09-03T10:46:06.532Z,96018.34
2022-09-03T10:48:39.244Z,96010.47
2022-09-03T10:51:15.108Z,96006.56
2022-09-03T10:53:56.745Z,96001.31
2022-09-03T10:56:41.775Z,95994.34
2022-09-03T10:59:30.378Z,95998.16
2022-09-03T11:02:32.025Z,95996.72
2022-09-03T11:05:08.119Z,95992.72
2022-09-03T11:07:45.278Z,95996.34
2022-09-03T11:10:32.814Z,95993.59
2022-09-03T11:13:18.742Z,95986.56
2022-09-03T11:16:09.524Z,95987.41
2022-09-03T11:18:48.964Z,95979.19
2022-09-03T11:21:20.976Z,95978.88
2022-09-03T11:24:17.363Z,95971.56
2022-09-03T11:26:48.438Z,95983.94
2022-09-03T11:29:25.333Z,95981.50
2022-09-03T11:32:01.718Z,95971.28
2022-09-03T11:34:32.481Z,95970.38
2022-09-03T11:37:27.558Z,95965.84
2022-09-03T11:40:26.989Z,95961.16
2022-09-03T11:42:53.637Z,95970.03
2022-09-03T11:45:40.235Z,95969.59
2022-09-03T11:48:34.283Z,95963.50
2022-09-03T11:51:00.944Z,95964.25
2022-09-03T11:53:36.789Z,95963.38
2022-09-03T11:56:06.530Z,95962.09
2022-09-03T11:58:36.740Z,95960.38
2022-09-03T12:01:10.370Z,95965.31
2022-09-03T12:03:51.798Z,95973.75
2022-09-03T12:06:30.713Z,95967.16
2022-09-03T12:09:18.433Z,95966.25
2022-09-03T12:11:53.292Z,95973.06
2022-09-03T12:14:47.215Z,95969.72
2022-09-03T12:17:25.990Z,95961.59
2022-09-03T12:19:57.817Z,95953.97
2022-09-03T12:22:31.429Z,95963.31
2022-09-03T12:25:12.035Z,95949.78
2022-09-03T12:27:41.165Z,95946.59
2022-09-03T12:30:17.333Z,95954.69
2022-09-03T12:32:45.550Z,95953.56
2022-09-03T12:38:24.146Z,95953.13
2022-09-03T12:43:38.712Z,95941.09
2022-09-03T12:46:14.754Z,95939.28
2022-09-03T12:51:55.807Z,95941.69
2022-09-03T12:54:23.776Z,95926.59
2022-09-03T12:57:00.531Z,95922.78
2022-09-03T12:59:32.596Z,95913.19
2022-09-03T13:02:06.833Z,95920.13
2022-09-03T13:04:36.729Z,95915.25
2022-09-03T13:07:05.900Z,95912.41
2022-09-03T13:09:36.604Z,95906.88
2022-09-03T13:12:06.822Z,95908.56
2022-09-03T13:14:48.365Z,95896.81
2022-09-03T13:17:37.397Z,95903.94
2022-09-03T13:20:29.430Z,95893.34
2022-09-03T13:23:16.932Z,95885.63
2022-09-03T13:26:17.529Z,95894.34
2022-09-03T13:29:31.260Z,95880.66
2022-09-03T13:32:12.481Z,95872.44
2022-09-03T13:34:54.954Z,95877.75
2022-09-03T13:37:34.186Z,95869.94
2022-09-03T13:40:15.994Z,95870.81
2022-09-03T13:42:53.337Z,95879.13
2022-09-03T13:45:32.593Z,95873.56
2022-09-03T13:48:47.250Z,95869.47
2022-09-03T13:51:16.616Z,95881.06
2022-09-03T13:53:50.639Z,95869.22
2022-09-03T13:56:36.870Z,95866.31
2022-09-03T13:59:40.213Z,95857.69
2022-09-03T14:02:40.276Z,95862.50
2022-09-03T14:05:19.734Z,95858.97
2022-09-03T14:07:58.573Z,95865.50
2022-09-03T14:10:34.103Z,95865.50
2022-09-03T14:13:11.970Z,95871.09
2022-09-03T14:15:48.441Z,95857.66
2022-09-03T14:18:32.362Z,95870.78
2022-09-03T14:21:22.724Z,95869.44
2022-09-03T14:23:53.118Z,95865.88
2022-09-03T14:26:38.578Z,95864.41
2022-09-03T14:29:12.581Z,95874.69
2022-09-03T14:31:39.255Z,95872.28
2022-09-03T14:34:08.954Z,95879.34
2022-09-03T14:36:44.031Z,95879.19
2022-09-03T14:39:48.485Z,95878.81
2022-09-03T14:42:53.023Z,95872.34
2022-09-03T14:45:25.343Z,95887.47
2022-09-03T14:48:08.463Z,95892.16
2022-09-03T14:50:38.125Z,95888.75
2022-09-03T14:53:10.889Z,95886.53
2022-09-03T14:55:37.417Z,95899.06
2022-09-03T14:58:24.068Z,95900.44
2022-09-03T15:01:11.441Z,95897.41
2022-09-03T15:04:34.145Z,95893.38
2022-09-03T15:07:33.052Z,95893.03
2022-09-03T15:10:06.157Z,95893.81
2022-09-03T15:12:57.730Z,95892.75
2022-09-03T15:15:55.870Z,95888.09
2022-09-03T15:18:58.898Z,95888.56
2022-09-03T15:21:48.665Z,95886.91
2022-09-03T15:24:37.490Z,95884.28
2022-09-03T15:27:18.519Z,95884.81
2022-09-03T15:30:15.238Z,95884.81
2022-09-03T15:32:54.041Z,95885.41
2022-09-03T15:35:29.553Z,95887.72
2022-09-03T15:38:00.325Z,95892.44
2022-09-03T15:40:35.289Z,95887.63
2022-09-03T15:43:21.930Z,95894.88
2022-09-03T15:45:48.625Z,95894.88
2022-09-03T15:48:35.029Z,95903.72
2022-09-03T15:51:39.229Z,95899.44
2022-09-03T15:54:27.162Z,95909.22
2022-09-03T15:57:34.374Z,95913.53
2022-09-03T16:00:11.331Z,95918.22
2022-09-03T16:02:45.438Z,95926.78
2022-09-03T16:05:19.991Z,95925.63
2022-09-03T16:08:00.107Z,95924.97
2022-09-03T16:10:46.463Z,95931.75
2022-09-03T16:13:34.988Z,95927.34
2022-09-03T16:16:09.734Z,95933.31
2022-09-03T16:18:41.502Z,95932.50
2022-09-03T16:21:58.670Z,95931.38
2022-09-03T16:24:46.854Z,95932.50
2022-09-03T16:27:22.879Z,95926.28
2022-09-03T16:30:02.582Z,95929.44
2022-09-03T16:32:48.448Z,95931.03
2022-09-03T16:35:21.777Z,95931.00
2022-09-03T16:38:01.262Z,95931.78
2022-09-03T16:40:49.366Z,95931.78
2022-09-03T16:43:44.663Z,95937.41
2022-09-03T16:46:18.863Z,95934.25
2022-09-03T16:48:51.314Z,95927.25
2022-09-03T16:51:58.956Z,95938.59
2022-09-03T16:54:56.067Z,95933.94
2022-09-03T16:57:29.930Z,95933.03
2022-09-03T17:00:02.585Z,95928.72
2022-09-03T17:02:51.127Z,95929.47
2022-09-03T17:05:41.888Z,95935.03
2022-09-03T17:08:15.026Z,95931.97
2022-09-03T17:10:49.839Z,95944.56
2022-09-03T17:13:57.448Z,95937.47
2022-09-03T17:16:45.993Z,95932.78
2022-09-03T17:19:27.054Z,95935.16
2022-09-03T17:22:15.861Z,95945.38
2022-09-03T17:24:56.362Z,95955.97
2022-09-03T17:27:26.619Z,95956.78
2022-09-03T17:30:15.969Z,95972.09
2022-09-03T17:33:06.991Z,95983.09
2022-09-03T17:35:48.926Z,96010.88
2022-09-03T17:38:43.318Z,96018.03
2022-09-03T17:41:18.722Z,96029.41
2022-09-03T17:43:58.689Z,96029.53
2022-09-03T17:46:42.873Z,96040.97
2022-09-03T17:49:23.817Z,96057.94
2022-09-03T17:54:51.849Z,96110.97
2022-09-03T17:57:26.876Z,96132.22
2022-09-03T18:00:12.561Z,96150.53
2022-09-03T18:03:16.732Z,96168.31
2022-09-03T18:06:01.170Z,96194.25
2022-09-03T18:08:36.152Z,96213.94
2022-09-03T18:11:22.461Z,96236.44
2022-09-03T18:14:00.962Z,96250.81
2022-09-03T18:16:31.790Z,96262.19
2022-09-03T18:19:09.097Z,96263.34
2022-09-03T18:21:57.697Z,96258.31
2022-09-03T18:25:04.188Z,96267.56
2022-09-03T18:28:02.438Z,96273.47
2022-09-03T18:30:47.696Z,96271.44
2022-09-03T18:33:37.219Z,96277.97
2022-09-03T18:36:23.957Z,96292.09
2022-09-03T18:39:09.122Z,96310.28
2022-09-03T18:42:16.262Z,96321.59
2022-09-03T18:45:21.445Z,96323.34
2022-09-03T18:48:46.516Z,96319.34
2022-09-03T18:51:41.050Z,96321.91
2022-09-03T18:54:50.554Z,96325.25
2022-09-03T18:57:49.713Z,96339.22
2022-09-03T19:00:35.823Z,96334.47
2022-09-03T19:03:58.651Z,96335.13
2022-09-03T19:07:12.418Z,96332.75
2022-09-03T19:10:16.815Z,96337.69
2022-09-03T19:13:37.198Z,96334.41
2022-09-03T19:16:24.892Z,96331.88
2022-09-03T19:19:33.638Z,96335.28
2022-09-03T19:22:27.783Z,96338.63
2022-09-03T19:25:20.326Z,96329.22
2022-09-03T19:28:08.540Z,96302.63
2022-09-03T19:31:42.200Z,96274.69
2022-09-03T19:34:59.575Z,96235.56
2022-09-03T19:37:53.875Z,96205.44
2022-09-03T19:40:59.024Z,96218.56
2022-09-03T19:44:03.039Z,96250.22
2022-09-03T19:47:13.267Z,96251.31
2022-09-03T19:50:18.622Z,96228.81
2022-09-03T19:53:03.496Z,96229.81
2022-09-03T19:56:07.175Z,96242.78
2022-09-03T19:58:56.563Z,96242.28
2022-09-03T20:01:48.131Z,96228.09
2022-09-03T20:04:35.084Z,96223.44
2022-09-03T20:07:23.775Z,96222.94
2022-09-03T20:10:12.425Z,96214.16
2022-09-03T20:12:43.407Z,96215.31
2022-09-03T20:15:10.536Z,96224.94
2022-09-03T20:18:05.178Z,96215.78
2022-09-03T20:20:41.908Z,96215.09
2022-09-03T20:23:50.162Z,96217.00
2022-09-03T20:26:46.195Z,96225.47
2022-09-03T20:29:40.760Z,96222.56
2022-09-03T20:32:48.611Z,96222.31
2022-09-03T20:35:19.842Z,96228.44
2022-09-03T20:38:01.582Z,96225.47
2022-09-03T20:40:49.168Z,96226.41
2022-09-03T20:43:33.392Z,96231.38
2022-09-03T20:46:10.299Z,96235.47
2022-09-03T20:48:49.371Z,96236.06
2022-09-03T20:51:27.411Z,96238.28
2022-09-03T20:54:11.886Z,96230.44
2022-09-03T20:56:53.477Z,96229.53
2022-09-03T20:59:25.674Z,96229.78
2022-09-03T21:01:58.715Z,96227.75
2022-09-03T21:05:08.943Z,96225.03
2022-09-03T21:07:46.865Z,96232.31
2022-09-03T21:10:28.404Z,96228.22
2022-09-03T21:13:13.206Z,96222.91
2022-09-03T21:15:56.641Z,96229.38
2022-09-03T21:18:35.631Z,96226.63
2022-09-03T21:21:09.681Z,96224.63
2022-09-03T21:23:50.947Z,96226.19
2022-09-03T21:26:26.217Z,96227.31
2022-09-03T21:29:05.814Z,96228.44
2022-09-03T21:31:47.814Z,96239.09
2022-09-03T21:34:20.443Z,96228.78
2022-09-03T21:36:49.087Z,96229.59
2022-09-03T21:39:20.420Z,96230.16
2022-09-03T21:42:09.489Z,96232.06
2022-09-03T21:44:52.023Z,96235.25
2022-09-03T21:47:21.406Z,96237.75
2022-09-03T21:50:05.442Z,96235.03
2022-09-03T21:53:02.408Z,96230.97
2022-09-03T21:55:50.342Z,96234.88
2022-09-03T21:58:19.726Z,96228.22
2022-09-03T22:00:47.640Z,96228.34
2022-09-03T22:03:14.353Z,96237.50
2022-09-03T22:05:51.985Z,96231.16
2022-09-03T22:08:26.442Z,96225.94
2022-09-03T22:11:16.185Z,96229.34
2022-09-03T22:14:01.413Z,96231.81
2022-09-03T22:16:43.710Z,96228.66
2022-09-03T22:19:10.811Z,96225.50
2022-09-03T22:22:01.192Z,96233.63
2022-09-03T22:24:34.351Z,96235.44
2022-09-03T22:27:44.417Z,96239.50
2022-09-03T22:30:19.982Z,96235.31
2022-09-03T22:33:22.564Z,96230.69
2022-09-03T22:35:52.240Z,96234.53
2022-09-03T22:38:41.313Z,96227.31
2022-09-03T22:41:48.123Z,96228.56
2022-09-03T22:44:35.559Z,96236.38
2022-09-03T22:47:29.581Z,96237.22
2022-09-03T22:50:09.464Z,96244.19
2022-09-03T22:52:53.200Z,96237.88
2022-09-03T22:55:23.374Z,96239.03
2022-09-03T22:57:53.613Z,96237.31
2022-09-03T23:00:21.204Z,96236.41
2022-09-03T23:02:55.182Z,96231.09
2022-09-03T23:05:59.065Z,96237.69
2022-09-03T23:08:54.002Z,96233.84
2022-09-03T23:11:39.714Z,96236.41
2022-09-03T23:14:13.210Z,96236.63
2022-09-03T23:16:43.549Z,96239.44
2022-09-03T23:21:53.633Z,96234.94
2022-09-03T23:24:27.845Z,96240.03
2022-09-03T23:26:55.043Z,96238.00
2022-09-03T23:29:43.838Z,96237.63
2022-09-03T23:32:10.587Z,96240.91
2022-09-03T23:34:39.377Z,96239.59
2022-09-03T23:37:35.339Z,96237.22
2022-09-03T23:40:26.309Z,96248.63
2022-09-03T23:43:31.161Z,96239.38
2022-09-03T23:46:25.477Z,96238.44
2022-09-03T23:49:14.092Z,96230.31
2022-09-03T23:52:11.542Z,96234.50
2022-09-03T23:54:39.714Z,96239.25
2022-09-03T23:57:32.440Z,96237.88
